Time;durP1;ratioP1;P1;durP2;ratioP2;P2;SDS_P1;SDS_P2;PMS_P1;PMS_P2;Temp;Humidity;BMP_temperature;BMP_pressure;BME280_temperature;BME280_humidity;BME280_pressure;Samples;Min_cycle;Max_cycle;Signal;HPM_P1;HPM_P2
2023/03/14 00:02:07;;;;;;;27.40;6.05;;;9.50;99.90;;;;;;5054862;28;20391;-21
2023/03/14 00:04:33;;;;;;;31.80;6.47;;;9.50;99.90;;;;;;5055700;28;20053;-21
2023/03/14 00:06:59;;;;;;;23.60;4.05;;;9.50;99.90;;;;;;5054662;28;20060;-21
2023/03/14 00:09:26;;;;;;;27.48;4.38;;;9.50;99.90;;;;;;5055589;28;20041;-21
2023/03/14 00:11:53;;;;;;;38.95;4.88;;;9.60;99.90;;;;;;5056113;28;20113;-21
2023/03/14 00:14:19;;;;;;;30.60;4.97;;;9.60;99.90;;;;;;5055542;28;20049;-21
2023/03/14 00:16:48;;;;;;;22.30;3.53;;;9.70;99.90;;;;;;5055590;28;20102;-21
2023/03/14 00:19:13;;;;;;;25.35;4.28;;;9.70;99.90;;;;;;5055405;28;20041;-21
2023/03/14 00:21:39;;;;;;;18.73;4.45;;;9.70;99.90;;;;;;5055439;28;20051;-21
2023/03/14 00:24:05;;;;;;;31.17;4.68;;;9.70;99.90;;;;;;5055427;28;20055;-21
2023/03/14 00:26:31;;;;;;;21.33;3.53;;;9.70;99.90;;;;;;5055453;28;20394;-21
2023/03/14 00:28:57;;;;;;;22.38;4.28;;;9.80;99.90;;;;;;5054644;28;20044;-21
2023/03/14 00:31:23;;;;;;;18.00;3.85;;;9.80;99.90;;;;;;5055252;28;20056;-21
2023/03/14 00:33:52;;;;;;;20.27;4.03;;;9.70;99.90;;;;;;5055263;28;20068;-21
2023/03/14 00:36:20;;;;;;;25.67;4.40;;;9.60;99.90;;;;;;5055987;28;20533;-21
2023/03/14 00:38:48;;;;;;;18.50;4.20;;;9.60;99.90;;;;;;5055068;28;20049;-21
2023/03/14 00:41:16;;;;;;;25.88;4.05;;;9.50;99.90;;;;;;5055909;28;20049;-21
2023/03/14 00:43:43;;;;;;;22.40;4.63;;;9.50;99.90;;;;;;5054997;28;20048;-21
2023/03/14 00:46:09;;;;;;;24.83;4.57;;;9.50;99.90;;;;;;5055036;28;20080;-20
2023/03/14 00:48:35;;;;;;;19.20;4.13;;;9.50;99.90;;;;;;5054624;28;20037;-21
2023/03/14 00:51:06;;;;;;;24.75;5.10;;;9.30;99.90;;;;;;5054930;28;20056;-21
2023/03/14 00:53:36;;;;;;;20.17;4.25;;;9.40;99.90;;;;;;5055684;28;20052;-21
2023/03/14 00:56:04;;;;;;;23.10;5.13;;;9.40;99.90;;;;;;5054786;28;20384;-22
2023/03/14 00:58:29;;;;;;;22.80;3.70;;;9.40;99.90;;;;;;5054609;28;20499;-20
2023/03/14 01:00:55;;;;;;;28.25;4.15;;;9.40;99.90;;;;;;5053496;28;20083;-21
2023/03/14 01:03:21;;;;;;;15.70;3.50;;;9.60;99.90;;;;;;5053464;28;20049;-21
2023/03/14 01:05:47;;;;;;;29.88;4.30;;;9.60;99.90;;;;;;5036684;28;20091;-21
2023/03/14 01:08:13;;;;;;;18.63;3.72;;;9.60;99.90;;;;;;5054479;28;20045;-21
2023/03/14 01:10:40;;;;;;;19.48;4.30;;;9.60;99.90;;;;;;5052577;28;20060;-21
2023/03/14 01:13:06;;;;;;;24.30;4.85;;;9.60;99.90;;;;;;5055209;28;20052;-21
2023/03/14 01:15:33;;;;;;;20.75;3.67;;;9.50;99.90;;;;;;5053114;28;20398;-20
2023/03/14 01:17:59;;;;;;;18.92;3.28;;;9.50;99.90;;;;;;5054775;28;20040;-21
2023/03/14 01:20:25;;;;;;;20.65;3.70;;;9.60;99.90;;;;;;5054071;28;20045;-20
2023/03/14 01:22:51;;;;;;;18.83;3.55;;;9.60;99.90;;;;;;5054230;28;20049;-20
2023/03/14 01:25:17;;;;;;;21.50;4.28;;;9.60;99.90;;;;;;5054254;28;20439;-20
2023/03/14 01:27:44;;;;;;;18.58;3.45;;;9.60;99.90;;;;;;5054126;28;20093;-20
2023/03/14 01:30:11;;;;;;;9.95;1.65;;;9.70;99.90;;;;;;5054605;28;20090;-20
2023/03/14 01:32:37;;;;;;;14.88;4.07;;;9.80;99.90;;;;;;5054659;28;20063;-21
2023/03/14 01:35:04;;;;;;;19.05;3.85;;;9.90;99.90;;;;;;5054563;28;20053;-21
2023/03/14 01:37:30;;;;;;;25.42;3.42;;;9.90;99.90;;;;;;5053903;28;20130;-21
2023/03/14 01:39:56;;;;;;;18.45;3.22;;;10.00;99.90;;;;;;5052793;28;20475;-21
2023/03/14 01:42:21;;;;;;;13.75;2.55;;;10.10;99.90;;;;;;5053927;28;20045;-21
2023/03/14 01:44:53;;;;;;;12.40;2.72;;;10.10;99.90;;;;;;5054704;28;20049;-21
2023/03/14 01:47:20;;;;;;;14.25;2.35;;;10.10;99.90;;;;;;5053823;28;20049;-21
2023/03/14 01:49:49;;;;;;;14.40;3.25;;;10.10;99.90;;;;;;5053463;28;20395;-21
2023/03/14 01:52:22;;;;;;;12.02;2.67;;;10.20;99.90;;;;;;5053700;28;20052;-21
2023/03/14 01:54:52;;;;;;;15.57;2.95;;;10.20;99.90;;;;;;5054632;28;20045;-21
2023/03/14 01:57:40;;;;;;;18.60;2.70;;;10.20;99.90;;;;;;5053012;28;20045;-21
2023/03/14 02:00:15;;;;;;;13.30;2.55;;;10.10;99.90;;;;;;5054285;28;20096;-21
2023/03/14 02:02:47;;;;;;;17.08;2.17;;;10.00;99.90;;;;;;5053741;28;20052;-21
2023/03/14 02:05:16;;;;;;;20.40;3.33;;;10.00;99.90;;;;;;5053624;28;20102;-21
2023/03/14 02:07:54;;;;;;;13.35;2.15;;;9.90;99.90;;;;;;5053859;28;20041;-21
2023/03/14 02:10:23;;;;;;;11.20;1.85;;;9.80;99.90;;;;;;5054276;28;20045;-21
2023/03/14 02:12:52;;;;;;;14.40;2.28;;;9.50;99.90;;;;;;5054010;28;20053;-21
2023/03/14 02:15:18;;;;;;;13.55;2.35;;;9.30;99.90;;;;;;5053434;28;20495;-21
2023/03/14 02:17:45;;;;;;;17.15;3.22;;;9.20;99.90;;;;;;5053593;28;20467;-20
2023/03/14 02:20:26;;;;;;;11.38;2.72;;;9.20;99.90;;;;;;5052327;28;20453;-21
2023/03/14 02:22:52;;;;;;;16.58;2.10;;;9.20;99.90;;;;;;5057030;28;20057;-21
2023/03/14 02:25:33;;;;;;;13.77;2.53;;;9.20;99.90;;;;;;5058545;28;20545;-21
2023/03/14 02:28:00;;;;;;;18.27;2.78;;;9.20;99.90;;;;;;5060055;28;20040;-21
2023/03/14 02:30:28;;;;;;;11.02;2.35;;;9.10;99.90;;;;;;5059039;28;20041;-22
2023/03/14 02:33:00;;;;;;;13.70;1.98;;;9.10;99.90;;;;;;5059985;28;20110;-22
2023/03/14 02:35:29;;;;;;;17.95;2.00;;;8.90;99.90;;;;;;5059673;28;20479;-22
2023/03/14 02:38:06;;;;;;;17.35;2.97;;;8.80;99.90;;;;;;5059839;28;20045;-22
2023/03/14 02:40:32;;;;;;;14.10;2.90;;;8.70;99.90;;;;;;5060597;28;20071;-22
2023/03/14 02:42:58;;;;;;;15.20;2.65;;;8.80;99.90;;;;;;5059891;28;20049;-22
2023/03/14 02:45:23;;;;;;;18.60;2.40;;;8.70;99.90;;;;;;5059920;28;20136;-24
2023/03/14 02:47:55;;;;;;;15.50;2.28;;;8.70;99.90;;;;;;5059857;28;20041;-24
2023/03/14 02:50:26;;;;;;;22.00;2.25;;;8.70;99.90;;;;;;5060171;28;20439;-24
2023/03/14 02:52:51;;;;;;;12.98;2.28;;;8.60;99.90;;;;;;5060144;28;20048;-24
2023/03/14 02:55:22;;;;;;;14.90;2.67;;;8.60;99.90;;;;;;5058642;28;20590;-23
2023/03/14 02:57:47;;;;;;;9.07;1.70;;;8.60;99.90;;;;;;5060532;28;20448;-23
2023/03/14 03:00:14;;;;;;;7.70;1.48;;;8.60;99.90;;;;;;5059315;28;20072;-23
2023/03/14 03:02:40;;;;;;;10.25;2.47;;;8.70;99.90;;;;;;5059986;28;20053;-23
2023/03/14 03:05:06;;;;;;;15.55;2.08;;;8.70;99.90;;;;;;5059694;28;20052;-23
2023/03/14 03:07:32;;;;;;;14.32;3.15;;;8.70;99.90;;;;;;5058502;28;20048;-24
2023/03/14 03:09:58;;;;;;;12.65;2.40;;;8.70;99.90;;;;;;5060378;28;20456;-23
2023/03/14 03:12:24;;;;;;;21.60;4.28;;;8.60;99.90;;;;;;5060436;28;20061;-24
2023/03/14 03:14:50;;;;;;;14.70;3.25;;;8.60;99.90;;;;;;5059650;28;20457;-24
2023/03/14 03:17:16;;;;;;;17.50;2.97;;;8.60;99.90;;;;;;5059646;28;20053;-24
2023/03/14 03:19:42;;;;;;;12.63;3.15;;;8.50;99.90;;;;;;5059544;28;20110;-26
2023/03/14 03:22:08;;;;;;;11.95;2.03;;;8.50;99.90;;;;;;5059615;28;20052;-27
2023/03/14 03:24:34;;;;;;;13.27;2.42;;;8.40;99.90;;;;;;5059272;28;20049;-27
2023/03/14 03:26:59;;;;;;;20.45;3.22;;;8.40;99.90;;;;;;5058899;28;20061;-27
2023/03/14 03:29:25;;;;;;;12.93;2.50;;;8.40;99.90;;;;;;5042826;28;20471;-28
2023/03/14 03:31:51;;;;;;;11.93;2.33;;;8.40;99.90;;;;;;5059512;28;20044;-28
2023/03/14 03:34:17;;;;;;;12.75;3.05;;;8.40;99.90;;;;;;5056561;28;20056;-29
2023/03/14 03:36:43;;;;;;;18.88;4.10;;;8.40;99.90;;;;;;5056292;28;20079;-28
2023/03/14 03:39:08;;;;;;;15.68;2.97;;;8.40;99.90;;;;;;5054982;28;20094;-28
2023/03/14 03:41:35;;;;;;;12.95;3.35;;;8.50;99.90;;;;;;5055496;28;20124;-28
2023/03/14 03:44:00;;;;;;;18.48;3.92;;;8.50;99.90;;;;;;5056169;28;20041;-29
2023/03/14 03:46:26;;;;;;;18.58;4.03;;;8.50;99.90;;;;;;5054852;28;20060;-28
2023/03/14 03:48:56;;;;;;;13.60;2.88;;;8.40;99.90;;;;;;5056080;28;20124;-28
2023/03/14 03:51:22;;;;;;;26.27;5.00;;;8.50;99.90;;;;;;5056048;28;20055;-28
2023/03/14 03:53:47;;;;;;;14.85;3.67;;;8.50;99.90;;;;;;5055973;28;20040;-28
2023/03/14 03:56:13;;;;;;;22.52;3.67;;;8.50;99.90;;;;;;5054994;28;20041;-29
2023/03/14 03:58:39;;;;;;;14.18;3.03;;;8.50;99.90;;;;;;5055228;28;20045;-27
2023/03/14 04:01:06;;;;;;;29.30;5.10;;;8.50;99.90;;;;;;5054639;28;20052;-27
2023/03/14 04:03:32;;;;;;;22.30;3.38;;;8.50;99.90;;;;;;5037934;28;20052;-28
2023/03/14 04:06:12;;;;;;;23.63;4.15;;;8.50;99.90;;;;;;5037661;28;20045;-28
2023/03/14 04:08:40;;;;;;;11.98;3.05;;;8.50;99.90;;;;;;5055678;28;20037;-27
2023/03/14 04:11:06;;;;;;;24.95;3.45;;;8.60;99.90;;;;;;5054751;28;20052;-28
2023/03/14 04:13:31;;;;;;;20.08;3.75;;;8.50;99.90;;;;;;5055697;28;20140;-28
2023/03/14 04:15:57;;;;;;;16.52;3.47;;;8.50;99.90;;;;;;5056191;28;20553;-27
2023/03/14 04:18:26;;;;;;;18.08;3.78;;;8.50;99.90;;;;;;5055534;28;20037;-27
2023/03/14 04:20:54;;;;;;;29.30;4.78;;;8.50;99.90;;;;;;5055545;28;20048;-28
2023/03/14 04:23:23;;;;;;;19.33;3.83;;;8.50;99.90;;;;;;5054214;28;20049;-28
2023/03/14 04:25:50;;;;;;;28.42;4.85;;;8.40;99.90;;;;;;5055978;28;20383;-28
2023/03/14 04:28:16;;;;;;;21.05;3.25;;;8.50;99.90;;;;;;5055569;28;20041;-28
2023/03/14 04:30:42;;;;;;;19.48;3.28;;;8.40;99.90;;;;;;5055847;28;20049;-28
2023/03/14 04:33:08;;;;;;;24.63;4.10;;;8.40;99.90;;;;;;5055356;28;20053;-28
2023/03/14 04:35:34;;;;;;;28.35;4.15;;;8.40;99.90;;;;;;5056022;28;20049;-28
2023/03/14 04:38:00;;;;;;;18.83;4.18;;;8.40;99.90;;;;;;5055065;28;20060;-29
2023/03/14 04:40:26;;;;;;;22.75;4.65;;;8.40;99.90;;;;;;5055126;28;20044;-29
2023/03/14 04:42:52;;;;;;;26.73;5.20;;;8.30;99.90;;;;;;5055017;28;20052;-28
2023/03/14 04:45:17;;;;;;;31.90;5.72;;;8.30;99.90;;;;;;5054853;28;20049;-30
2023/03/14 04:47:43;;;;;;;15.38;3.95;;;8.40;99.90;;;;;;5054931;28;20399;-28
2023/03/14 04:50:13;;;;;;;19.55;3.85;;;8.40;99.90;;;;;;5053691;28;20041;-28
2023/03/14 04:52:39;;;;;;;17.50;4.32;;;8.40;99.90;;;;;;5054516;28;20453;-27
2023/03/14 04:55:07;;;;;;;21.63;5.43;;;8.40;99.90;;;;;;5054193;28;20049;-28
2023/03/14 04:57:33;;;;;;;22.13;4.53;;;8.50;99.90;;;;;;5054657;28;20071;-31
2023/03/14 04:59:58;;;;;;;32.55;6.75;;;8.40;99.90;;;;;;5054718;28;20060;-31
2023/03/14 05:02:24;;;;;;;21.67;5.72;;;8.40;99.90;;;;;;5054693;28;20045;-32
2023/03/14 05:04:50;;;;;;;15.55;4.43;;;8.30;99.90;;;;;;5053434;28;20045;-30
2023/03/14 05:07:16;;;;;;;26.92;6.35;;;8.30;99.90;;;;;;5053455;28;20056;-30
2023/03/14 05:09:41;;;;;;;16.20;5.18;;;8.30;99.90;;;;;;5054462;28;20479;-30
2023/03/14 05:12:08;;;;;;;26.20;6.80;;;8.40;99.90;;;;;;5054805;28;20044;-28
2023/03/14 05:14:36;;;;;;;13.40;4.85;;;8.30;99.90;;;;;;5053270;28;20085;-29
2023/03/14 05:17:01;;;;;;;11.75;4.20;;;8.40;99.90;;;;;;5054386;28;20049;-27
2023/03/14 05:19:27;;;;;;;22.38;6.75;;;8.30;99.90;;;;;;5053066;28;20048;-27
2023/03/14 05:21:53;;;;;;;10.52;4.60;;;8.30;99.90;;;;;;5052998;28;20041;-26
2023/03/14 05:24:19;;;;;;;18.33;6.75;;;8.40;99.90;;;;;;5054244;28;20107;-27
2023/03/14 05:26:45;;;;;;;13.23;5.60;;;8.30;99.90;;;;;;5054014;28;20495;-25
2023/03/14 05:29:10;;;;;;;13.75;5.72;;;8.30;99.90;;;;;;5036636;28;20098;-26
2023/03/14 05:31:39;;;;;;;9.82;4.05;;;8.40;99.90;;;;;;5054372;28;20510;-26
2023/03/14 05:34:04;;;;;;;8.70;2.97;;;8.30;99.90;;;;;;5036530;28;20048;-24
2023/03/14 05:36:30;;;;;;;7.30;3.10;;;8.40;99.90;;;;;;5054088;28;20051;-24
2023/03/14 05:38:56;;;;;;;8.60;2.60;;;8.40;99.90;;;;;;5053930;28;20471;-24
2023/03/14 05:41:22;;;;;;;8.68;3.25;;;8.30;99.90;;;;;;5054141;28;20052;-25
2023/03/14 05:43:48;;;;;;;14.88;6.03;;;8.30;99.90;;;;;;5053809;28;20049;-25
2023/03/14 05:46:13;;;;;;;8.75;4.35;;;8.20;99.90;;;;;;5053865;28;20084;-23
2023/03/14 05:48:39;;;;;;;11.57;5.60;;;8.20;99.90;;;;;;5053777;28;20081;-24
2023/03/14 05:51:06;;;;;;;12.77;4.35;;;8.10;99.90;;;;;;5052756;28;20048;-22
2023/03/14 05:53:31;;;;;;;6.65;3.88;;;8.30;99.90;;;;;;5053098;28;20045;-23
2023/03/14 05:55:57;;;;;;;11.55;4.45;;;8.20;99.90;;;;;;5054505;28;20041;-23
2023/03/14 05:58:23;;;;;;;8.95;3.65;;;8.30;99.90;;;;;;5052450;28;20049;-23
2023/03/14 06:00:50;;;;;;;8.20;4.20;;;8.10;99.90;;;;;;5054147;28;20381;-22
2023/03/14 06:03:16;;;;;;;9.23;3.95;;;8.10;99.90;;;;;;5053394;28;20499;-23
2023/03/14 06:05:42;;;;;;;7.32;3.53;;;8.30;99.90;;;;;;5054488;28;20073;-22
2023/03/14 06:08:07;;;;;;;7.25;2.40;;;8.30;99.90;;;;;;5053704;28;20391;-22
2023/03/14 06:10:37;;;;;;;10.48;3.50;;;8.30;99.90;;;;;;5053546;28;20183;-23
2023/03/14 06:13:03;;;;;;;9.07;3.13;;;8.30;99.90;;;;;;5053290;28;20498;-21
2023/03/14 06:15:29;;;;;;;4.07;0.80;;;8.00;99.90;;;;;;5052371;28;20057;-19
2023/03/14 06:17:55;;;;;;;13.23;1.70;;;7.40;99.90;;;;;;5053513;28;20442;-19
2023/03/14 06:20:21;;;;;;;17.02;1.88;;;6.20;99.90;;;;;;5053523;28;20127;-20
2023/03/14 06:22:47;;;;;;;13.70;1.67;;;6.70;99.90;;;;;;5053506;28;20470;-19
2023/03/14 06:25:13;;;;;;;14.43;1.83;;;6.50;99.90;;;;;;5053387;28;20063;-19
2023/03/14 06:27:39;;;;;;;17.23;1.83;;;6.40;99.90;;;;;;5053461;28;20088;-19
2023/03/14 06:30:05;;;;;;;7.13;1.35;;;6.40;99.90;;;;;;5053477;28;20067;-19
2023/03/14 06:32:31;;;;;;;18.42;1.92;;;5.40;99.90;;;;;;5053123;28;20558;-20
2023/03/14 06:35:00;;;;;;;27.77;2.88;;;5.50;99.90;;;;;;5053390;28;20093;-20
2023/03/14 06:37:28;;;;;;;20.30;1.50;;;6.30;99.90;;;;;;5053071;28;20399;-19
2023/03/14 06:39:54;;;;;;;15.15;1.85;;;4.50;99.90;;;;;;5053318;28;20049;-19
2023/03/14 06:42:20;;;;;;;21.75;2.45;;;4.50;99.90;;;;;;5051832;28;20399;-20
2023/03/14 06:44:46;;;;;;;25.77;2.25;;;4.10;99.90;;;;;;5053337;28;20048;-19
2023/03/14 06:47:12;;;;;;;22.60;2.08;;;5.30;99.90;;;;;;5052327;28;20060;-19
2023/03/14 06:49:38;;;;;;;14.73;1.55;;;3.80;99.90;;;;;;5053838;28;20041;-20
2023/03/14 06:52:03;;;;;;;10.98;1.30;;;5.20;99.90;;;;;;5053237;28;20045;-20
2023/03/14 06:54:29;;;;;;;11.88;1.55;;;5.00;99.90;;;;;;5052344;28;20138;-20
2023/03/14 06:56:55;;;;;;;15.57;0.90;;;3.50;99.90;;;;;;5053224;28;20483;-19
2023/03/14 06:59:21;;;;;;;19.25;1.95;;;4.60;99.90;;;;;;5053100;28;20518;-20
2023/03/14 07:01:48;;;;;;;12.68;1.45;;;3.60;99.90;;;;;;5053111;28;20088;-20
2023/03/14 07:04:13;;;;;;;13.45;0.75;;;4.50;99.90;;;;;;5035758;28;20052;-19
2023/03/14 07:06:44;;;;;;;12.82;1.13;;;4.40;99.90;;;;;;5053097;28;20067;-19
2023/03/14 07:09:10;;;;;;;7.40;0.60;;;4.20;99.90;;;;;;5054081;28;20049;-20
2023/03/14 07:11:36;;;;;;;8.65;0.60;;;4.50;99.90;;;;;;5055981;28;20120;-20
2023/03/14 07:14:02;;;;;;;8.63;1.45;;;4.20;99.90;;;;;;5056836;28;20451;-20
2023/03/14 07:16:31;;;;;;;3.83;0.30;;;3.80;99.90;;;;;;5056479;28;20109;-20
2023/03/14 07:18:57;;;;;;;8.20;0.65;;;2.80;99.90;;;;;;5056369;28;20049;-20
2023/03/14 07:21:23;;;;;;;7.82;1.02;;;4.20;99.90;;;;;;5056752;28;20048;-20
2023/03/14 07:23:49;;;;;;;10.15;0.73;;;4.00;99.90;;;;;;5056605;28;20067;-20
2023/03/14 07:26:15;;;;;;;7.27;0.50;;;4.10;99.90;;;;;;5054952;28;20056;-21
2023/03/14 07:28:41;;;;;;;6.23;0.43;;;2.90;99.90;;;;;;5056530;28;20131;-21
2023/03/14 07:31:07;;;;;;;8.38;1.08;;;2.90;99.90;;;;;;5056794;28;20048;-21
2023/03/14 07:33:33;;;;;;;9.93;0.45;;;4.30;99.90;;;;;;5056450;28;20049;-21
2023/03/14 07:35:59;;;;;;;7.32;0.77;;;3.00;99.90;;;;;;5056379;28;20057;-21
2023/03/14 07:38:25;;;;;;;8.27;1.10;;;3.00;99.90;;;;;;5056264;28;20045;-21
2023/03/14 07:40:57;;;;;;;5.57;0.50;;;3.30;99.90;;;;;;5055908;28;20057;-21
2023/03/14 07:43:23;;;;;;;12.93;0.73;;;3.90;99.90;;;;;;5056891;28;20045;-21
2023/03/14 07:45:53;;;;;;;13.37;1.73;;;4.10;99.90;;;;;;5055040;28;20059;-21
2023/03/14 07:48:19;;;;;;;5.47;0.55;;;4.50;99.90;;;;;;5039133;28;20040;-22
2023/03/14 07:50:49;;;;;;;10.20;0.73;;;4.00;99.90;;;;;;5054958;28;20051;-22
2023/03/14 07:53:15;;;;;;;13.13;1.65;;;3.70;99.90;;;;;;5056982;28;20045;-22
2023/03/14 07:55:41;;;;;;;12.45;2.42;;;3.50;99.90;;;;;;5054912;28;20059;-22
2023/03/14 07:58:07;;;;;;;10.95;1.70;;;4.50;99.90;;;;;;5056778;28;20044;-22
2023/03/14 08:00:33;;;;;;;5.85;1.52;;;4.40;99.90;;;;;;5038267;28;20045;-22
2023/03/14 08:02:59;;;;;;;10.07;1.20;;;3.50;99.90;;;;;;5054396;28;20060;-22
2023/03/14 08:05:24;;;;;;;10.35;1.70;;;4.00;99.90;;;;;;5054797;28;20395;-23
2023/03/14 08:07:50;;;;;;;10.23;2.15;;;4.10;99.90;;;;;;5055864;28;20151;-23
2023/03/14 08:10:22;;;;;;;9.43;0.80;;;3.80;99.90;;;;;;5055972;28;20041;-23
2023/03/14 08:12:54;;;;;;;8.68;1.02;;;3.60;99.90;;;;;;5056105;28;20051;-23
2023/03/14 08:15:23;;;;;;;12.98;1.00;;;3.60;99.90;;;;;;5038185;28;20052;-23
2023/03/14 08:17:51;;;;;;;10.23;0.88;;;4.40;99.90;;;;;;5054397;28;20142;-24
2023/03/14 08:20:25;;;;;;;11.07;0.95;;;4.30;99.90;;;;;;5054152;28;20049;-24
2023/03/14 08:22:51;;;;;;;7.78;1.10;;;4.60;99.90;;;;;;5054326;28;20056;-24
2023/03/14 08:25:17;;;;;;;6.82;1.20;;;4.10;99.90;;;;;;5054158;28;20044;-24
2023/03/14 08:27:44;;;;;;;10.10;1.00;;;3.80;99.90;;;;;;5054286;28;20049;-24
2023/03/14 08:30:12;;;;;;;11.10;1.00;;;4.30;99.90;;;;;;5054796;28;20376;-24
2023/03/14 08:32:39;;;;;;;10.80;1.35;;;4.30;99.90;;;;;;5055354;28;20052;-24
2023/03/14 08:35:06;;;;;;;13.93;2.47;;;4.40;99.90;;;;;;5054104;28;20048;-24
2023/03/14 08:37:33;;;;;;;20.50;2.15;;;4.90;99.90;;;;;;5055501;28;20372;-24
2023/03/14 08:39:59;;;;;;;15.00;1.67;;;4.60;99.90;;;;;;5055550;28;20040;-24
2023/03/14 08:42:24;;;;;;;15.18;2.83;;;4.90;99.90;;;;;;5054033;28;20056;-24
2023/03/14 08:44:51;;;;;;;13.65;2.20;;;4.60;99.90;;;;;;5053907;28;20394;-24
2023/03/14 08:47:18;;;;;;;16.88;2.22;;;5.20;99.90;;;;;;5055632;28;20049;-24
2023/03/14 08:49:44;;;;;;;22.35;3.08;;;4.40;99.90;;;;;;5053870;28;20051;-25
2023/03/14 08:52:09;;;;;;;21.92;2.97;;;4.80;99.90;;;;;;5053843;28;20080;-24
2023/03/14 08:54:37;;;;;;;17.30;3.63;;;4.40;99.90;;;;;;5054340;28;20060;-25
2023/03/14 08:57:03;;;;;;;20.50;2.60;;;4.90;99.90;;;;;;5055441;28;20098;-25
2023/03/14 08:59:29;;;;;;;13.80;2.20;;;4.60;99.90;;;;;;5054731;28;20132;-24
2023/03/14 09:01:58;;;;;;;18.70;2.60;;;5.20;99.90;;;;;;5053384;28;20052;-25
2023/03/14 09:04:24;;;;;;;22.02;2.38;;;5.10;99.90;;;;;;5055283;28;20056;-26
2023/03/14 09:06:50;;;;;;;25.17;3.03;;;5.20;99.90;;;;;;5055533;28;20056;-26
2023/03/14 09:09:16;;;;;;;22.23;3.08;;;5.30;99.90;;;;;;5054605;28;20368;-26
2023/03/14 09:11:41;;;;;;;27.05;3.47;;;5.40;99.90;;;;;;5055378;28;20103;-26
2023/03/14 09:14:09;;;;;;;19.73;2.50;;;5.40;99.90;;;;;;5037406;28;20045;-25
2023/03/14 09:16:35;;;;;;;19.60;3.45;;;5.20;99.90;;;;;;5053599;28;20076;-25
2023/03/14 09:19:01;;;;;;;25.95;3.80;;;5.10;99.90;;;;;;5054395;28;20076;-25
2023/03/14 09:21:27;;;;;;;28.20;3.35;;;4.90;99.90;;;;;;5036899;28;20439;-25
2023/03/14 09:23:53;;;;;;;24.15;4.25;;;5.10;99.90;;;;;;5054628;28;20041;-25
2023/03/14 09:26:19;;;;;;;25.00;3.55;;;5.00;99.90;;;;;;5052677;28;20457;-26
2023/03/14 09:28:45;;;;;;;24.98;4.15;;;5.20;99.90;;;;;;5054295;28;20045;-25
2023/03/14 09:31:12;;;;;;;23.52;4.32;;;5.10;99.90;;;;;;5052880;28;20102;-26
2023/03/14 09:33:38;;;;;;;20.80;3.30;;;4.80;99.90;;;;;;5052770;28;20057;-25
2023/03/14 09:36:05;;;;;;;17.92;2.33;;;4.90;99.90;;;;;;5054146;28;20053;-26
2023/03/14 09:38:36;;;;;;;22.13;2.70;;;5.00;99.90;;;;;;5053584;28;20049;-26
2023/03/14 09:41:09;;;;;;;17.30;3.65;;;5.10;99.90;;;;;;5054712;28;20049;-25
2023/03/14 09:43:36;;;;;;;21.42;3.53;;;4.90;99.90;;;;;;5054888;28;20045;-25
2023/03/14 09:46:05;;;;;;;24.52;3.45;;;4.60;99.90;;;;;;5036394;28;20049;-26
2023/03/14 09:48:34;;;;;;;20.33;3.00;;;4.60;99.90;;;;;;5053883;28;20044;-26
2023/03/14 09:51:15;;;;;;;27.77;4.15;;;4.60;99.90;;;;;;5053911;28;20091;-26
2023/03/14 09:53:45;;;;;;;22.52;2.92;;;4.80;99.90;;;;;;5054465;28;20052;-27
2023/03/14 09:56:24;;;;;;;20.30;2.45;;;4.80;99.90;;;;;;5053882;28;20102;-27
2023/03/14 09:58:57;;;;;;;24.38;3.13;;;4.50;99.90;;;;;;5053734;28;20049;-27
2023/03/14 10:01:27;;;;;;;21.27;3.05;;;4.50;99.90;;;;;;5053186;28;20454;-27
2023/03/14 10:04:00;;;;;;;31.83;5.43;;;4.70;99.90;;;;;;5053708;28;20106;-27
2023/03/14 10:06:27;;;;;;;;;;;4.80;99.90;;;;;;5052936;28;20049;-27
2023/03/14 10:08:56;;;;;;;18.35;3.45;;;4.80;99.90;;;;;;5053855;28;19944;-27
2023/03/14 10:11:23;;;;;;;19.30;3.45;;;5.20;99.90;;;;;;5052628;28;20045;-27
2023/03/14 10:14:05;;;;;;;19.88;2.95;;;5.80;99.90;;;;;;5053568;28;20048;-29
2023/03/14 10:16:36;;;;;;;24.42;3.08;;;6.00;99.90;;;;;;5053621;28;20045;-28
2023/03/14 10:19:04;;;;;;;16.75;2.72;;;6.00;99.90;;;;;;5052682;28;20045;-28
2023/03/14 10:21:35;;;;;;;17.10;2.47;;;6.10;99.90;;;;;;5054325;28;20049;-28
2023/03/14 10:24:27;;;;;;;21.52;3.83;;;5.90;99.90;;;;;;5036253;28;20052;-28
2023/03/14 10:26:55;;;;;;;12.40;2.28;;;5.90;99.90;;;;;;5052825;28;20053;-28
2023/03/14 10:29:23;;;;;;;14.63;2.58;;;5.90;99.90;;;;;;5052542;28;20076;-28
2023/03/14 10:32:09;;;;;;;11.85;2.00;;;5.90;99.90;;;;;;5053771;28;20063;-28
2023/03/14 10:34:37;;;;;;;17.98;2.92;;;6.40;99.90;;;;;;5054017;28;20502;-29
2023/03/14 10:37:21;;;;;;;13.93;1.77;;;6.80;99.90;;;;;;5035574;28;20049;-30
2023/03/14 10:39:53;;;;;;;12.45;2.50;;;7.20;99.90;;;;;;5036093;28;20060;-31
2023/03/14 10:42:41;;;;;;;9.45;2.28;;;7.20;99.90;;;;;;5053344;28;20048;-30
2023/03/14 10:45:36;;;;;;;13.75;2.65;;;6.60;99.90;;;;;;5056865;28;20086;-29
2023/03/14 10:48:37;;;;;;;9.10;1.90;;;6.10;99.90;;;;;;5056726;28;20459;-29
2023/03/14 10:51:07;;;;;;;11.43;2.45;;;6.10;99.90;;;;;;5057155;28;20053;-30
2023/03/14 10:53:41;;;;;;;11.57;2.17;;;6.70;99.90;;;;;;5056225;28;20114;-30
2023/03/14 10:56:07;;;;;;;13.13;2.00;;;7.40;99.90;;;;;;5058029;28;20110;-30
2023/03/14 10:58:42;;;;;;;13.60;1.75;;;7.80;99.90;;;;;;5056004;28;20049;-29
2023/03/14 11:01:32;;;;;;;10.90;1.60;;;7.80;99.90;;;;;;5057122;28;20407;-30
2023/03/14 11:04:19;;;;;;;10.82;2.10;;;8.00;99.90;;;;;;5056774;28;20565;-30
2023/03/14 11:06:54;;;;;;;11.63;2.40;;;7.50;99.90;;;;;;5039354;28;20509;-29
2023/03/14 11:09:40;;;;;;;11.75;2.03;;;6.70;99.90;;;;;;5057427;28;20456;-30
2023/03/14 11:12:31;;;;;;;13.50;2.00;;;6.30;99.90;;;;;;5056943;28;20479;-29
2023/03/14 11:15:45;;;;;;;13.80;1.88;;;6.10;99.90;;;;;;5057237;28;20064;-29
2023/03/14 11:18:16;;;;;;;9.30;1.35;;;6.00;99.90;;;;;;5054362;28;20041;-29
2023/03/14 11:21:09;;;;;;;9.30;1.25;;;6.40;99.90;;;;;;5056167;28;20110;-30
2023/03/14 11:24:00;;;;;;;7.78;1.75;;;7.30;99.90;;;;;;5056674;28;20487;-29
2023/03/14 11:26:48;;;;;;;8.57;1.50;;;7.10;99.90;;;;;;5056662;28;20118;-28
2023/03/14 11:29:35;;;;;;;8.35;1.20;;;6.50;99.90;;;;;;5056611;28;20048;-28
2023/03/14 11:32:10;;;;;;;4.90;1.25;;;7.00;99.90;;;;;;5057098;28;20053;-29
2023/03/14 11:34:51;;;;;;;5.78;1.17;;;7.20;99.90;;;;;;5056992;28;20410;-29
2023/03/14 11:37:33;;;;;;;6.68;1.23;;;7.50;99.90;;;;;;5056476;28;20053;-28
2023/03/14 11:40:11;;;;;;;6.97;2.08;;;7.80;99.90;;;;;;5055670;28;20049;-29
2023/03/14 11:42:39;;;;;;;8.35;1.40;;;8.00;99.90;;;;;;5056426;28;20123;-29
2023/03/14 11:45:17;;;;;;;9.00;1.30;;;8.30;99.90;;;;;;5056308;28;20049;-29
2023/03/14 11:47:46;;;;;;;7.25;1.50;;;7.80;99.90;;;;;;5055361;28;20041;-28
2023/03/14 11:50:30;;;;;;;7.63;1.40;;;8.00;99.90;;;;;;5055465;28;20056;-29
2023/03/14 11:53:21;;;;;;;11.45;2.25;;;8.30;99.90;;;;;;5056777;28;20041;-30
2023/03/14 11:55:47;;;;;;;9.80;1.63;;;7.80;99.90;;;;;;5055248;28;20053;-28
2023/03/14 11:58:35;;;;;;;10.57;1.45;;;6.90;99.90;;;;;;5056066;28;20045;-28
2023/03/14 12:01:09;;;;;;;13.30;2.78;;;6.90;99.90;;;;;;5056583;28;20447;-28
2023/03/14 12:04:04;;;;;;;10.95;1.85;;;7.20;99.90;;;;;;5055855;28;20056;-28
2023/03/14 12:06:36;;;;;;;12.65;2.42;;;7.00;99.90;;;;;;5055921;28;20056;-29
2023/03/14 12:09:03;;;;;;;9.18;1.20;;;6.80;99.90;;;;;;5055314;28;20387;-27
2023/03/14 12:11:56;;;;;;;8.20;1.98;;;6.60;99.90;;;;;;5055461;28;20533;-28
2023/03/14 12:14:24;;;;;;;5.88;1.60;;;6.40;99.90;;;;;;5056397;28;20084;-28
2023/03/14 12:16:58;;;;;;;9.32;1.90;;;6.40;99.90;;;;;;5055950;28;20453;-27
2023/03/14 12:19:24;;;;;;;9.07;1.63;;;6.80;99.90;;;;;;5056173;28;20041;-28
2023/03/14 12:22:10;;;;;;;9.00;1.63;;;7.60;99.90;;;;;;5055582;28;20150;-28
2023/03/14 12:24:38;;;;;;;7.50;1.60;;;7.90;99.90;;;;;;5055574;28;20137;-27
2023/03/14 12:27:08;;;;;;;13.70;2.10;;;7.90;99.90;;;;;;5053998;28;20053;-28
2023/03/14 12:29:59;;;;;;;14.02;1.55;;;7.60;99.90;;;;;;5038730;28;20139;-27
2023/03/14 12:32:25;;;;;;;10.57;2.47;;;7.20;99.90;;;;;;5055413;28;20554;-28
2023/03/14 12:34:51;;;;;;;13.73;2.80;;;6.80;99.90;;;;;;5055316;28;20053;-27
2023/03/14 12:37:29;;;;;;;13.82;2.22;;;6.50;99.90;;;;;;5054329;28;20114;-27
2023/03/14 12:40:24;;;;;;;15.27;2.40;;;6.50;99.90;;;;;;5054314;28;20044;-27
2023/03/14 12:43:03;;;;;;;9.27;1.52;;;6.90;99.90;;;;;;5055039;28;20052;-27
2023/03/14 12:45:36;;;;;;;13.73;2.00;;;6.80;99.90;;;;;;5054243;28;20063;-26
2023/03/14 12:48:10;;;;;;;12.63;1.55;;;6.40;99.90;;;;;;5021833;28;20053;-26
2023/03/14 12:50:54;;;;;;;13.25;1.88;;;6.10;99.90;;;;;;5054151;28;20077;-26
2023/03/14 12:53:38;;;;;;;16.77;2.75;;;6.20;99.90;;;;;;5054164;28;20131;-26
2023/03/14 12:56:17;;;;;;;10.23;2.20;;;6.50;99.90;;;;;;5054331;28;20088;-26
2023/03/14 12:59:05;;;;;;;12.05;1.75;;;6.40;99.90;;;;;;5055358;28;20116;-26
2023/03/14 13:01:33;;;;;;;8.45;1.45;;;6.50;99.90;;;;;;5054494;28;20562;-26